createdAt,value
2018-02-02T00:00:51.184Z,99.10
2018-02-02T00:03:18.731Z,99.10
2018-02-02T00:05:46.264Z,99.20
2018-02-02T00:08:16.119Z,99.30
2018-02-02T00:10:43.643Z,99.50
2018-02-02T00:13:11.554Z,99.30
2018-02-02T00:15:39.115Z,99.40
2018-02-02T00:18:06.647Z,99.40
2018-02-02T00:20:34.402Z,99.30
2018-02-02T00:23:02.005Z,99.30
2018-02-02T00:25:29.544Z,99.40
2018-02-02T00:27:57.075Z,99.40
2018-02-02T00:30:25.999Z,99.50
2018-02-02T00:32:53.527Z,99.50
2018-02-02T00:35:21.059Z,99.50
2018-02-02T00:37:48.610Z,99.40
2018-02-02T00:40:16.451Z,99.50
2018-02-02T00:42:43.983Z,99.40
2018-02-02T00:45:11.552Z,99.70
2018-02-02T00:47:39.075Z,99.10
2018-02-02T00:50:06.609Z,99.20
2018-02-02T00:52:34.663Z,99.10
2018-02-02T00:55:02.203Z,99.00
2018-02-02T00:57:29.818Z,99.00
2018-02-02T00:59:57.383Z,99.00
2018-02-02T01:02:25.731Z,98.60
2018-02-02T01:04:53.256Z,98.60
2018-02-02T01:07:20.807Z,98.60
2018-02-02T01:09:48.371Z,98.60
2018-02-02T01:12:17.164Z,98.40
2018-02-02T01:14:45.467Z,98.40
2018-02-02T01:17:14.562Z,98.50
2018-02-02T01:19:42.090Z,98.50
2018-02-02T01:22:09.657Z,98.50
2018-02-02T01:24:37.215Z,98.90
2018-02-02T01:27:04.749Z,98.80
2018-02-02T01:29:33.063Z,98.50
2018-02-02T01:32:00.600Z,98.50
2018-02-02T01:34:28.147Z,98.60
2018-02-02T01:36:56.268Z,98.70
2018-02-02T01:39:23.798Z,98.70
2018-02-02T01:41:51.336Z,98.70
2018-02-02T01:44:18.900Z,98.60
2018-02-02T01:46:47.191Z,98.50
2018-02-02T01:52:10.972Z,98.20
2018-02-02T01:54:38.492Z,97.90
2018-02-02T01:57:06.019Z,98.10
2018-02-02T01:59:33.583Z,98.20
2018-02-02T02:02:01.887Z,98.80
2018-02-02T02:04:29.415Z,98.70
2018-02-02T02:06:56.975Z,98.80
2018-02-02T02:09:24.498Z,99.00
2018-02-02T02:11:52.028Z,98.60
2018-02-02T02:14:20.454Z,98.60
2018-02-02T02:16:48.219Z,98.00
2018-02-02T02:19:16.487Z,97.50
2018-02-02T02:21:44.043Z,97.10
2018-02-02T02:24:11.572Z,96.70
2018-02-02T02:26:39.095Z,96.50
2018-02-02T02:29:06.656Z,96.20
2018-02-02T02:31:34.179Z,95.70
2018-02-02T02:34:01.710Z,95.60
2018-02-02T02:36:29.723Z,95.30
2018-02-02T02:38:57.247Z,94.90
2018-02-02T02:41:24.774Z,95.30
2018-02-02T02:43:53.095Z,95.20
2018-02-02T02:46:20.620Z,95.20
2018-02-02T02:48:48.915Z,95.30
2018-02-02T02:51:16.483Z,95.20
2018-02-02T02:53:44.012Z,95.10
2018-02-02T02:56:12.308Z,95.00
2018-02-02T02:58:40.631Z,95.00
2018-02-02T03:01:08.163Z,94.80
2018-02-02T03:03:35.690Z,95.00
2018-02-02T03:06:03.253Z,95.00
2018-02-02T03:08:30.792Z,95.10
2018-02-02T03:10:58.319Z,95.20
2018-02-02T03:13:25.879Z,95.60
2018-02-02T03:15:53.407Z,95.20
2018-02-02T03:18:21.382Z,95.20
2018-02-02T03:20:49.304Z,95.30
2018-02-02T03:23:16.835Z,95.70
2018-02-02T03:25:44.371Z,96.10
2018-02-02T03:28:11.933Z,96.40
2018-02-02T03:30:39.463Z,96.50
2018-02-02T03:33:07.755Z,96.90
2018-02-02T03:35:35.311Z,96.80
2018-02-02T03:38:02.858Z,97.00
2018-02-02T03:40:31.163Z,96.80
2018-02-02T03:42:59.467Z,96.80
2018-02-02T03:48:29.435Z,96.40
2018-02-02T03:50:57.739Z,96.40
2018-02-02T03:53:26.035Z,96.10
2018-02-02T03:55:53.596Z,96.10
2018-02-02T03:58:21.132Z,96.10
2018-02-02T04:00:48.674Z,95.70
2018-02-02T04:03:16.818Z,95.40
2018-02-02T04:05:44.347Z,95.80
2018-02-02T04:08:11.870Z,96.00
2018-02-02T04:10:39.434Z,95.90
2018-02-02T04:13:06.970Z,96.30
2018-02-02T04:15:35.263Z,96.30
2018-02-02T04:18:02.822Z,96.30
2018-02-02T04:20:30.614Z,96.20
2018-02-02T04:22:58.149Z,96.10
2018-02-02T04:25:26.047Z,96.50
2018-02-02T04:27:53.576Z,96.40
2018-02-02T04:30:21.171Z,96.20
2018-02-02T04:32:48.739Z,96.10
2018-02-02T04:35:20.294Z,95.60
2018-02-02T04:37:47.819Z,95.60
2018-02-02T04:40:16.454Z,95.80
2018-02-02T04:42:43.988Z,95.50
2018-02-02T04:45:11.529Z,95.60
2018-02-02T04:47:39.739Z,95.90
2018-02-02T04:50:07.275Z,95.90
2018-02-02T04:52:34.812Z,96.30
2018-02-02T04:55:02.371Z,96.10
2018-02-02T04:57:29.911Z,96.20
2018-02-02T04:59:58.216Z,96.50
2018-02-02T05:02:25.774Z,96.50
2018-02-02T05:04:53.302Z,96.50
2018-02-02T05:07:20.854Z,96.50
2018-02-02T05:09:48.995Z,96.60
2018-02-02T05:12:16.534Z,96.80
2018-02-02T05:14:44.079Z,96.90
2018-02-02T05:17:11.661Z,96.80
2018-02-02T05:19:39.203Z,96.90
2018-02-02T05:22:06.966Z,96.90
2018-02-02T05:24:34.526Z,96.90
2018-02-02T05:27:02.067Z,96.90
2018-02-02T05:29:29.600Z,96.90
2018-02-02T05:31:58.263Z,96.90
2018-02-02T05:34:25.836Z,97.00
2018-02-02T05:36:53.371Z,96.90
2018-02-02T05:39:21.972Z,97.10
2018-02-02T05:41:49.531Z,96.90
2018-02-02T05:44:17.065Z,96.80
2018-02-02T05:46:44.635Z,96.70
2018-02-02T05:49:12.176Z,96.70
2018-02-02T05:51:39.711Z,96.70
2018-02-02T05:54:07.322Z,96.90
2018-02-02T05:56:34.857Z,96.80
2018-02-02T05:59:02.387Z,96.60
2018-02-02T06:01:29.957Z,96.40
2018-02-02T06:03:58.264Z,96.30
2018-02-02T06:06:26.458Z,96.30
2018-02-02T06:08:54.032Z,96.20
2018-02-02T06:11:21.562Z,96.30
2018-02-02T06:13:49.233Z,96.00
2018-02-02T06:16:17.012Z,96.10
2018-02-02T06:18:44.552Z,96.50
2018-02-02T06:21:12.088Z,96.70
2018-02-02T06:23:40.074Z,96.90
2018-02-02T06:26:07.608Z,96.80
2018-02-02T06:28:35.915Z,97.00
2018-02-02T06:31:03.470Z,97.00
2018-02-02T06:33:31.008Z,96.80
2018-02-02T06:35:58.539Z,96.60
2018-02-02T06:38:26.994Z,96.70
2018-02-02T06:40:54.529Z,96.60
2018-02-02T06:43:22.068Z,96.70
2018-02-02T06:45:49.627Z,96.80
2018-02-02T06:48:17.168Z,96.90
2018-02-02T06:50:45.490Z,97.00
2018-02-02T06:53:24.411Z,96.80
2018-02-02T07:00:19.370Z,97.40
2018-02-02T07:02:46.902Z,97.20
2018-02-02T07:05:15.375Z,97.60
2018-02-02T07:07:42.931Z,97.60
2018-02-02T07:10:10.471Z,97.30
2018-02-02T07:12:38.780Z,96.90
2018-02-02T07:15:06.347Z,96.90
2018-02-02T07:17:33.883Z,96.90
2018-02-02T07:20:01.436Z,96.80
2018-02-02T07:22:29.505Z,96.60
2018-02-02T07:24:57.040Z,96.70
2018-02-02T07:27:24.579Z,96.50
2018-02-02T07:29:52.146Z,96.40
2018-02-02T07:32:19.679Z,96.20
2018-02-02T07:34:47.215Z,95.60
2018-02-02T07:37:16.494Z,95.80
2018-02-02T07:39:44.798Z,96.00
2018-02-02T07:42:12.335Z,95.80
2018-02-02T07:44:41.247Z,95.80
2018-02-02T07:47:08.783Z,95.80
2018-02-02T07:49:37.079Z,95.30
2018-02-02T07:52:04.656Z,95.10
2018-02-02T07:54:32.270Z,94.70
2018-02-02T07:56:59.803Z,94.50
2018-02-02T07:59:27.375Z,94.60
2018-02-02T08:01:54.902Z,94.40
2018-02-02T08:04:22.435Z,94.00
2018-02-02T08:06:50.246Z,94.00
2018-02-02T08:09:17.770Z,94.00
2018-02-02T08:11:45.300Z,94.10
2018-02-02T08:14:15.380Z,93.80
2018-02-02T08:16:42.919Z,93.80
2018-02-02T08:19:10.447Z,94.00
2018-02-02T08:21:38.008Z,93.20
2018-02-02T08:24:05.543Z,92.90
2018-02-02T08:26:33.539Z,92.90
2018-02-02T08:29:01.307Z,92.70
2018-02-02T08:31:29.632Z,92.40
2018-02-02T08:33:57.171Z,92.40
2018-02-02T08:36:24.741Z,92.20
2018-02-02T08:38:52.280Z,91.60
2018-02-02T08:41:19.848Z,91.50
2018-02-02T08:43:47.403Z,90.40
2018-02-02T08:46:17.207Z,90.20
2018-02-02T08:48:44.743Z,90.20
2018-02-02T08:51:14.620Z,90.40
2018-02-02T08:53:42.153Z,90.40
2018-02-02T08:56:09.683Z,89.70
2018-02-02T08:58:37.290Z,89.30
2018-02-02T09:01:10.579Z,89.30
2018-02-02T09:03:38.128Z,89.20
2018-02-02T09:06:05.658Z,87.40
2018-02-02T09:08:33.301Z,87.40
2018-02-02T09:11:01.343Z,87.90
2018-02-02T09:13:28.881Z,88.50
2018-02-02T09:15:56.415Z,90.10
2018-02-02T09:18:23.976Z,90.50
2018-02-02T09:20:51.524Z,90.10
2018-02-02T09:23:19.828Z,88.60
2018-02-02T09:25:47.408Z,88.60
2018-02-02T09:28:16.747Z,88.60
2018-02-02T09:30:44.386Z,88.60
2018-02-02T09:33:12.458Z,87.00
2018-02-02T09:35:39.996Z,86.70
2018-02-02T09:38:07.523Z,86.20
2018-02-02T09:40:35.080Z,85.10
2018-02-02T09:43:02.627Z,84.80
2018-02-02T09:45:30.159Z,85.10
2018-02-02T09:47:57.718Z,85.70
2018-02-02T09:50:25.243Z,86.80
2018-02-02T09:52:52.771Z,85.70
2018-02-02T09:55:20.836Z,86.50
2018-02-02T09:57:48.375Z,85.00
2018-02-02T10:00:16.551Z,84.90
2018-02-02T10:02:44.264Z,83.30
2018-02-02T10:05:11.795Z,81.30
2018-02-02T10:07:39.394Z,82.30
2018-02-02T10:10:06.974Z,82.70
2018-02-02T10:12:34.519Z,82.10
2018-02-02T10:15:02.051Z,84.70
2018-02-02T10:17:30.999Z,81.30
2018-02-02T10:19:58.527Z,81.30
2018-02-02T10:22:26.063Z,81.60
2018-02-02T10:24:53.636Z,78.60
2018-02-02T10:27:21.178Z,80.00
2018-02-02T10:29:49.896Z,79.40
2018-02-02T10:32:17.456Z,79.40
2018-02-02T10:34:44.983Z,77.30
2018-02-02T10:37:14.218Z,73.60
2018-02-02T10:39:42.108Z,73.60
2018-02-02T10:42:09.641Z,73.90
2018-02-02T10:44:37.186Z,73.10
2018-02-02T10:47:04.748Z,78.20
2018-02-02T10:49:32.283Z,75.30
2018-02-02T10:52:00.590Z,81.20
2018-02-02T10:54:28.151Z,80.80
2018-02-02T10:56:55.683Z,82.70
2018-02-02T10:59:23.462Z,77.80
2018-02-02T11:04:51.242Z,72.30
2018-02-02T11:07:18.795Z,72.20
2018-02-02T11:09:47.078Z,75.10
2018-02-02T11:12:16.387Z,75.10
2018-02-02T11:14:43.947Z,75.00
2018-02-02T11:17:11.475Z,76.20
2018-02-02T11:19:39.005Z,75.90
2018-02-02T11:22:07.123Z,79.20
2018-02-02T11:24:34.652Z,80.00
2018-02-02T11:27:02.187Z,80.10
2018-02-02T11:29:30.635Z,77.00
2018-02-02T11:31:58.601Z,76.50
2018-02-02T11:34:27.059Z,74.30
2018-02-02T11:36:54.624Z,74.30
2018-02-02T11:39:22.263Z,74.50
2018-02-02T11:41:49.881Z,73.60
2018-02-02T11:44:17.789Z,74.90
2018-02-02T11:46:45.324Z,73.30
2018-02-02T11:49:13.793Z,74.80
2018-02-02T11:51:41.350Z,74.80
2018-02-02T11:54:08.881Z,73.30
2018-02-02T11:56:37.188Z,74.80
2018-02-02T11:59:04.739Z,74.30
2018-02-02T12:01:33.087Z,74.30
2018-02-02T12:04:00.600Z,74.30
2018-02-02T12:06:28.564Z,74.80
2018-02-02T12:08:56.100Z,72.70
2018-02-02T12:11:24.568Z,75.20
2018-02-02T12:13:52.904Z,73.70
2018-02-02T12:16:20.440Z,73.60
2018-02-02T12:18:47.971Z,72.40
2018-02-02T12:21:16.440Z,73.20
2018-02-02T12:23:49.611Z,71.60
2018-02-02T12:26:23.611Z,71.80
2018-02-02T12:29:06.924Z,72.70
2018-02-02T12:31:53.308Z,71.90
2018-02-02T12:34:24.960Z,72.40
2018-02-02T12:36:52.596Z,73.00
2018-02-02T12:39:20.224Z,71.70
2018-02-02T12:41:47.756Z,71.10
2018-02-02T12:44:16.458Z,68.00
2018-02-02T12:46:44.487Z,70.80
2018-02-02T12:49:16.451Z,69.30
2018-02-02T12:51:44.311Z,69.30
2018-02-02T12:54:12.632Z,69.20
2018-02-02T12:56:40.154Z,69.20
2018-02-02T12:59:08.498Z,69.80
2018-02-02T13:01:36.863Z,72.00
2018-02-02T13:04:04.417Z,71.40
2018-02-02T13:06:32.769Z,72.50
2018-02-02T13:09:04.709Z,72.40
2018-02-02T13:11:32.251Z,69.10
2018-02-02T13:13:59.831Z,67.70
2018-02-02T13:16:28.334Z,69.00
2018-02-02T13:19:02.621Z,69.00
2018-02-02T13:21:30.956Z,68.70
2018-02-02T13:24:01.030Z,64.80
2018-02-02T23:20:50.892Z,86.30
2018-02-02T23:23:19.254Z,87.10
2018-02-02T23:25:47.062Z,87.00
2018-02-02T23:28:26.987Z,87.80
2018-02-02T23:38:15.960Z,89.50
2018-02-02T23:40:43.508Z,89.40
2018-02-02T23:43:11.053Z,89.50
2018-02-02T23:45:38.613Z,89.90
2018-02-02T23:48:06.150Z,90.00
2018-02-02T23:50:34.447Z,89.20
2018-02-02T23:53:02.015Z,89.00
2018-02-02T23:55:29.560Z,88.70
2018-02-02T23:57:57.105Z,88.80
